createdAt,value
2022-09-26T00:00:35.068Z,2.40
2022-09-26T00:01:35.136Z,2.50
2022-09-26T00:02:35.078Z,2.40
2022-09-26T00:03:35.032Z,2.20
2022-09-26T00:04:35.021Z,2.40
2022-09-26T00:05:35.040Z,2.10
2022-09-26T00:06:35.018Z,2.20
2022-09-26T00:07:35.009Z,2.50
2022-09-26T00:08:34.979Z,2.20
2022-09-26T00:09:34.969Z,2.30
2022-09-26T00:10:34.968Z,2.40
2022-09-26T00:11:34.958Z,2.70
2022-09-26T00:12:34.938Z,2.60
2022-09-26T00:13:34.920Z,2.80
2022-09-26T00:14:34.919Z,2.80
2022-09-26T00:15:34.899Z,2.60
2022-09-26T00:16:34.976Z,2.70
2022-09-26T00:17:34.884Z,2.60
2022-09-26T00:18:34.898Z,2.60
2022-09-26T00:19:34.851Z,2.50
2022-09-26T00:20:34.856Z,2.80
2022-09-26T00:21:34.823Z,2.70
2022-09-26T00:22:34.834Z,2.90
2022-09-26T00:23:34.814Z,2.50
2022-09-26T00:24:34.833Z,2.70
2022-09-26T00:25:34.806Z,2.50
2022-09-26T00:26:34.794Z,3.00
2022-09-26T00:27:34.785Z,2.50
2022-09-26T00:28:34.763Z,2.40
2022-09-26T00:29:34.736Z,2.50
2022-09-26T00:30:34.799Z,2.40
2022-09-26T00:31:34.738Z,2.90
2022-09-26T00:32:34.734Z,2.60
2022-09-26T00:33:34.721Z,2.80
2022-09-26T00:34:34.727Z,3.00
2022-09-26T00:35:34.669Z,2.70
2022-09-26T00:36:38.443Z,2.70
2022-09-26T00:37:34.655Z,3.10
2022-09-26T00:38:34.638Z,2.70
2022-09-26T00:39:34.632Z,3.00
2022-09-26T00:40:34.708Z,2.70
2022-09-26T00:41:34.622Z,2.90
2022-09-26T00:42:34.599Z,2.70
2022-09-26T00:43:34.587Z,2.60
2022-09-26T00:44:34.580Z,2.70
2022-09-26T00:45:34.583Z,2.70
2022-09-26T00:46:34.584Z,2.80
2022-09-26T00:47:34.547Z,2.90
2022-09-26T00:48:34.528Z,3.20
2022-09-26T00:49:34.509Z,3.00
2022-09-26T00:50:34.549Z,3.00
2022-09-26T00:51:34.493Z,2.90
2022-09-26T00:52:34.550Z,2.70
2022-09-26T00:53:34.468Z,3.10
2022-09-26T00:54:34.463Z,3.30
2022-09-26T00:55:34.456Z,2.80
2022-09-26T00:56:34.454Z,2.90
2022-09-26T00:57:34.426Z,3.20
2022-09-26T00:58:34.445Z,3.10
2022-09-26T00:59:34.422Z,3.00
2022-09-26T01:00:34.402Z,3.00
2022-09-26T01:01:34.499Z,3.00
2022-09-26T01:02:34.512Z,3.30
2022-09-26T01:03:34.350Z,3.10
2022-09-26T01:04:34.352Z,3.10
2022-09-26T01:05:34.343Z,3.80
2022-09-26T01:06:34.355Z,3.20
2022-09-26T01:07:34.315Z,2.90
2022-09-26T01:08:34.315Z,3.10
2022-09-26T01:09:34.326Z,3.10
2022-09-26T01:10:34.295Z,3.20
2022-09-26T01:11:34.282Z,3.20
2022-09-26T01:12:34.277Z,3.40
2022-09-26T01:13:34.257Z,2.90
2022-09-26T01:14:34.248Z,3.30
2022-09-26T01:15:34.244Z,3.40
2022-09-26T01:16:34.354Z,3.00
2022-09-26T01:17:34.235Z,3.20
2022-09-26T01:18:34.197Z,3.20
2022-09-26T01:19:34.179Z,3.20
2022-09-26T01:20:34.188Z,3.40
2022-09-26T01:21:34.188Z,3.30
2022-09-26T01:22:34.155Z,3.00
2022-09-26T01:23:34.199Z,3.20
2022-09-26T01:24:34.151Z,3.30
2022-09-26T01:25:34.118Z,3.20
2022-09-26T01:26:34.106Z,2.90
2022-09-26T01:27:34.097Z,3.10
2022-09-26T01:28:34.089Z,3.40
2022-09-26T01:29:34.104Z,3.20
2022-09-26T01:30:34.140Z,3.00
2022-09-26T01:31:34.050Z,2.80
2022-09-26T01:32:34.043Z,2.70
2022-09-26T01:33:34.021Z,3.20
2022-09-26T01:34:34.018Z,3.20
2022-09-26T01:35:34.031Z,2.90
2022-09-26T01:36:34.001Z,3.00
2022-09-26T01:37:33.989Z,3.40
2022-09-26T01:38:33.970Z,2.90
2022-09-26T01:39:33.964Z,3.40
2022-09-26T01:40:34.066Z,3.20
2022-09-26T01:41:33.935Z,3.40
2022-09-26T01:42:33.944Z,3.30
2022-09-26T01:43:33.924Z,4.00
2022-09-26T01:44:33.931Z,3.80
2022-09-26T01:45:33.981Z,3.60
2022-09-26T01:46:33.924Z,3.80
2022-09-26T01:47:33.891Z,3.60
2022-09-26T01:48:33.865Z,3.50
2022-09-26T01:49:33.849Z,4.00
2022-09-26T01:50:33.850Z,3.70
2022-09-26T01:51:33.843Z,3.80
2022-09-26T01:52:33.827Z,4.30
2022-09-26T01:53:33.817Z,4.00
2022-09-26T01:54:33.807Z,4.00
2022-09-26T01:55:33.786Z,3.80
2022-09-26T01:56:33.797Z,4.40
2022-09-26T01:57:33.766Z,4.00
2022-09-26T01:58:33.746Z,4.20
2022-09-26T01:59:33.737Z,4.10
2022-09-26T02:00:33.779Z,4.30
2022-09-26T02:01:33.785Z,4.40
2022-09-26T02:02:33.768Z,4.40
2022-09-26T02:03:33.692Z,4.30
2022-09-26T02:04:33.689Z,4.60
2022-09-26T02:05:33.697Z,4.30
2022-09-26T02:06:33.673Z,4.30
2022-09-26T02:07:33.650Z,4.70
2022-09-26T02:08:33.686Z,4.40
2022-09-26T02:09:33.643Z,4.80
2022-09-26T02:10:33.620Z,4.50
2022-09-26T02:11:33.609Z,4.60
2022-09-26T02:12:33.601Z,4.50
2022-09-26T02:13:33.594Z,4.70
2022-09-26T02:14:33.611Z,4.60
2022-09-26T02:15:33.563Z,4.50
2022-09-26T02:16:33.617Z,4.30
2022-09-26T02:17:33.543Z,4.50
2022-09-26T02:18:33.534Z,4.50
2022-09-26T02:19:33.526Z,4.90
2022-09-26T02:20:33.534Z,4.50
2022-09-26T02:21:33.502Z,4.80
2022-09-26T02:22:33.496Z,4.30
2022-09-26T02:23:33.468Z,5.60
2022-09-26T02:24:33.464Z,5.00
2022-09-26T02:25:33.474Z,4.50
2022-09-26T02:26:33.471Z,4.90
2022-09-26T02:27:33.446Z,4.90
2022-09-26T02:28:33.422Z,4.90
2022-09-26T02:29:33.407Z,4.80
2022-09-26T02:30:33.393Z,5.10
2022-09-26T02:31:33.478Z,4.90
2022-09-26T02:32:33.391Z,4.60
2022-09-26T02:33:33.359Z,4.90
2022-09-26T02:34:33.356Z,4.80
2022-09-26T02:35:33.347Z,4.80
2022-09-26T02:36:33.357Z,4.60
2022-09-26T02:37:33.356Z,4.90
2022-09-26T02:38:33.305Z,4.60
2022-09-26T02:39:33.298Z,4.90
2022-09-26T02:40:33.336Z,5.40
2022-09-26T02:41:33.268Z,4.70
2022-09-26T02:42:33.261Z,4.50
2022-09-26T02:43:33.903Z,5.20
2022-09-26T02:44:33.276Z,4.90
2022-09-26T02:45:33.302Z,5.00
2022-09-26T02:46:33.242Z,4.90
2022-09-26T02:47:33.240Z,5.10
2022-09-26T02:48:33.200Z,4.70
2022-09-26T02:49:33.179Z,4.70
2022-09-26T02:50:33.773Z,4.50
2022-09-26T02:51:33.182Z,5.00
2022-09-26T02:52:33.172Z,4.90
2022-09-26T02:53:33.182Z,5.10
2022-09-26T02:54:33.132Z,4.50
2022-09-26T02:55:33.121Z,5.40
2022-09-26T02:56:33.113Z,5.10
2022-09-26T02:57:33.099Z,5.00
2022-09-26T02:58:33.093Z,5.40
2022-09-26T02:59:33.116Z,5.00
2022-09-26T03:00:33.068Z,4.80
2022-09-26T03:01:33.088Z,4.80
2022-09-26T03:02:33.067Z,5.20
2022-09-26T03:03:33.102Z,5.10
2022-09-26T03:04:33.199Z,5.30
2022-09-26T03:05:33.038Z,5.40
2022-09-26T03:06:32.993Z,5.00
2022-09-26T03:07:33.026Z,5.20
2022-09-26T03:08:32.985Z,5.10
2022-09-26T03:09:33.640Z,5.40
2022-09-26T03:10:32.973Z,5.10
2022-09-26T03:11:32.948Z,4.90
2022-09-26T03:12:32.939Z,5.10
2022-09-26T03:13:32.933Z,4.90
2022-09-26T03:14:32.917Z,5.20
2022-09-26T03:15:32.921Z,5.20
2022-09-26T03:16:32.945Z,5.40
2022-09-26T03:17:32.878Z,5.90
2022-09-26T03:18:32.866Z,5.30
2022-09-26T03:19:32.853Z,5.40
2022-09-26T03:20:32.868Z,5.80
2022-09-26T03:21:36.930Z,5.40
2022-09-26T03:22:32.848Z,5.20
2022-09-26T03:23:32.823Z,5.20
2022-09-26T03:24:32.811Z,5.90
2022-09-26T03:25:32.808Z,6.00
2022-09-26T03:26:32.769Z,5.80
2022-09-26T03:27:32.791Z,5.90
2022-09-26T03:28:37.429Z,5.80
2022-09-26T03:29:33.746Z,5.80
2022-09-26T03:30:32.722Z,5.90
2022-09-26T03:31:32.754Z,5.90
2022-09-26T03:32:32.763Z,5.90
2022-09-26T03:33:32.699Z,6.30
2022-09-26T03:34:32.684Z,6.60
2022-09-26T03:35:32.672Z,5.60
2022-09-26T03:36:32.661Z,6.20
2022-09-26T03:37:32.651Z,6.60
2022-09-26T03:38:32.672Z,6.10
2022-09-26T03:39:32.632Z,6.40
2022-09-26T03:40:32.659Z,6.00
2022-09-26T03:41:32.635Z,6.10
2022-09-26T03:42:32.593Z,6.40
2022-09-26T03:43:32.636Z,6.30
2022-09-26T03:44:32.570Z,6.40
2022-09-26T03:45:32.615Z,6.30
2022-09-26T03:46:37.540Z,6.60
2022-09-26T03:47:33.555Z,6.30
2022-09-26T03:48:32.543Z,5.90
2022-09-26T03:49:32.524Z,6.70
2022-09-26T03:50:32.544Z,6.10
2022-09-26T03:51:32.503Z,6.50
2022-09-26T03:52:32.482Z,6.30
2022-09-26T03:53:32.475Z,6.20
2022-09-26T03:54:32.465Z,6.00
2022-09-26T03:55:32.449Z,6.00
2022-09-26T03:56:32.469Z,5.90
2022-09-26T03:57:32.458Z,5.80
2022-09-26T03:58:32.574Z,5.80
2022-09-26T03:59:32.426Z,6.20
2022-09-26T04:00:32.407Z,6.10
2022-09-26T04:01:32.415Z,6.20
2022-09-26T04:02:33.227Z,5.90
2022-09-26T04:03:32.368Z,5.90
2022-09-26T04:04:32.364Z,5.70
2022-09-26T04:05:32.407Z,6.10
2022-09-26T04:06:32.332Z,6.00
2022-09-26T04:07:32.336Z,5.80
2022-09-26T04:08:32.347Z,5.80
2022-09-26T04:09:32.302Z,5.90
2022-09-26T04:10:32.288Z,5.90
2022-09-26T04:11:32.298Z,5.90
2022-09-26T04:12:32.264Z,5.80
2022-09-26T04:13:51.933Z,5.90
2022-09-26T04:14:33.318Z,5.40
2022-09-26T04:15:32.282Z,5.10
2022-09-26T04:16:32.362Z,6.10
2022-09-26T04:17:32.316Z,5.50
2022-09-26T04:18:32.192Z,5.60
2022-09-26T04:19:32.352Z,5.60
2022-09-26T04:20:32.172Z,5.50
2022-09-26T04:21:32.195Z,5.90
2022-09-26T04:22:32.156Z,6.10
2022-09-26T04:23:32.143Z,5.80
2022-09-26T04:24:32.135Z,5.80
2022-09-26T04:25:32.130Z,5.70
2022-09-26T04:26:32.103Z,5.50
2022-09-26T04:27:32.115Z,6.00
2022-09-26T04:28:32.082Z,5.60
2022-09-26T04:29:32.079Z,6.10
2022-09-26T04:30:32.056Z,6.10
2022-09-26T04:31:32.388Z,5.90
2022-09-26T04:32:32.169Z,5.30
2022-09-26T04:33:32.281Z,5.70
2022-09-26T04:34:32.101Z,5.60
2022-09-26T04:35:32.021Z,5.50
2022-09-26T04:36:31.999Z,5.50
2022-09-26T04:37:31.988Z,5.60
2022-09-26T04:38:31.998Z,5.60
2022-09-26T04:39:31.957Z,5.80
2022-09-26T04:40:32.040Z,5.70
2022-09-26T04:41:31.948Z,5.90
2022-09-26T04:42:31.929Z,5.80
2022-09-26T04:43:31.978Z,5.70
2022-09-26T04:44:32.154Z,5.30
2022-09-26T04:45:32.099Z,5.90
2022-09-26T04:46:32.007Z,5.70
2022-09-26T04:47:32.264Z,6.00
2022-09-26T04:48:31.917Z,5.60
2022-09-26T04:49:31.910Z,5.30
2022-09-26T04:50:31.900Z,5.20
2022-09-26T04:51:31.849Z,5.50
2022-09-26T04:52:31.871Z,5.60
2022-09-26T04:53:31.856Z,5.10
2022-09-26T04:54:31.791Z,5.20
2022-09-26T04:55:31.795Z,5.90
2022-09-26T04:56:32.573Z,6.00
2022-09-26T04:57:31.760Z,5.30
2022-09-26T04:58:31.903Z,5.60
2022-09-26T04:59:31.773Z,5.60
2022-09-26T05:00:31.983Z,5.30
2022-09-26T05:01:31.785Z,5.60
2022-09-26T05:02:31.780Z,5.40
2022-09-26T05:03:31.699Z,5.70
2022-09-26T05:04:31.700Z,5.70
2022-09-26T05:05:32.007Z,5.30
2022-09-26T05:06:38.327Z,5.10
2022-09-26T05:07:32.231Z,5.70
2022-09-26T05:08:31.648Z,5.50
2022-09-26T05:09:35.682Z,5.00
2022-09-26T05:10:31.625Z,5.40
2022-09-26T05:11:31.650Z,5.30
2022-09-26T05:12:31.606Z,5.10
2022-09-26T05:13:32.441Z,5.30
2022-09-26T05:14:31.590Z,5.00
2022-09-26T05:15:31.560Z,5.00
2022-09-26T05:16:31.772Z,5.20
2022-09-26T05:17:32.015Z,5.50
2022-09-26T05:18:32.992Z,5.00
2022-09-26T05:19:31.835Z,5.00
2022-09-26T05:20:31.522Z,5.30
2022-09-26T05:21:32.972Z,4.70
2022-09-26T05:22:32.334Z,4.80
2022-09-26T05:23:31.490Z,4.90
2022-09-26T05:24:31.504Z,4.80
2022-09-26T05:25:31.943Z,4.90
2022-09-26T05:26:31.710Z,4.20
2022-09-26T05:27:31.439Z,4.80
2022-09-26T05:28:31.546Z,4.10
2022-09-26T05:29:31.460Z,4.80
2022-09-26T05:30:31.479Z,4.20
2022-09-26T05:31:31.497Z,4.40
2022-09-26T05:32:31.410Z,4.70
2022-09-26T05:33:31.375Z,4.10
2022-09-26T05:34:31.368Z,4.50
2022-09-26T05:35:31.380Z,4.30
2022-09-26T05:36:31.381Z,4.60
2022-09-26T05:37:31.344Z,4.10
2022-09-26T05:38:31.314Z,4.50
2022-09-26T05:39:32.764Z,4.50
2022-09-26T05:40:31.419Z,4.30
2022-09-26T05:41:31.526Z,4.30
2022-09-26T05:42:31.812Z,4.00
2022-09-26T05:43:32.703Z,4.50
2022-09-26T05:44:32.101Z,3.90
2022-09-26T05:45:31.318Z,4.20
2022-09-26T05:46:32.247Z,4.00
2022-09-26T05:47:32.164Z,4.10
2022-09-26T05:48:31.296Z,4.30
2022-09-26T05:49:31.206Z,4.10
2022-09-26T05:50:31.256Z,4.10
2022-09-26T05:51:31.818Z,4.10
2022-09-26T05:52:31.268Z,4.00
2022-09-26T05:53:31.250Z,4.00
2022-09-26T05:54:31.176Z,3.70
2022-09-26T05:55:31.380Z,3.90
2022-09-26T05:56:31.127Z,3.80
2022-09-26T05:57:32.050Z,4.00
2022-09-26T05:58:32.567Z,3.90
2022-09-26T05:59:31.357Z,3.40
2022-09-26T06:00:31.618Z,3.30
2022-09-26T06:01:31.328Z,3.40
2022-09-26T06:02:32.539Z,3.50
2022-09-26T06:03:31.029Z,3.40
2022-09-26T06:04:31.851Z,3.60
2022-09-26T06:05:31.021Z,3.50
2022-09-26T06:06:31.038Z,3.50
2022-09-26T06:07:31.930Z,3.70
2022-09-26T06:08:30.992Z,3.50
2022-09-26T06:09:32.436Z,3.20
2022-09-26T06:10:31.915Z,3.50
2022-09-26T06:11:31.305Z,3.20
2022-09-26T06:12:31.343Z,3.20
2022-09-26T06:13:31.005Z,2.70
2022-09-26T06:14:31.893Z,3.10
2022-09-26T06:15:30.931Z,3.20
2022-09-26T06:16:31.090Z,3.50
2022-09-26T06:17:30.875Z,3.50
2022-09-26T06:18:31.044Z,3.10
2022-09-26T06:19:30.862Z,3.10
2022-09-26T06:20:31.689Z,3.40
2022-09-26T06:21:30.957Z,3.10
2022-09-26T06:22:31.214Z,2.90
2022-09-26T06:23:31.181Z,2.90
2022-09-26T06:24:31.265Z,3.00
2022-09-26T06:25:32.250Z,2.60
2022-09-26T06:26:30.784Z,3.00
2022-09-26T06:27:30.867Z,2.70
2022-09-26T06:28:30.758Z,3.30
2022-09-26T06:29:31.531Z,3.10
2022-09-26T06:30:30.736Z,2.80
2022-09-26T06:31:30.805Z,2.70
2022-09-26T06:32:30.793Z,3.00
2022-09-26T06:33:33.437Z,2.90
2022-09-26T06:34:31.694Z,2.70
2022-09-26T06:35:30.703Z,3.20
2022-09-26T06:36:30.858Z,3.10
2022-09-26T06:37:31.140Z,2.70
2022-09-26T06:38:30.699Z,2.50
2022-09-26T06:39:31.279Z,2.50
2022-09-26T06:40:31.496Z,2.80
2022-09-26T06:41:30.629Z,2.90
2022-09-26T06:42:30.608Z,3.10
2022-09-26T06:43:30.601Z,2.60
2022-09-26T06:44:30.629Z,2.80
2022-09-26T06:45:30.568Z,2.80
2022-09-26T06:46:30.624Z,2.90
2022-09-26T06:47:30.668Z,2.80
2022-09-26T06:48:30.741Z,2.60
2022-09-26T06:49:30.789Z,2.50
2022-09-26T06:50:30.541Z,3.00
2022-09-26T06:51:30.603Z,2.80
2022-09-26T06:52:31.957Z,3.00
2022-09-26T06:53:31.949Z,2.50
2022-09-26T06:54:31.294Z,2.60
2022-09-26T06:55:30.456Z,2.60
2022-09-26T06:56:30.476Z,2.70
2022-09-26T06:57:30.652Z,2.70
2022-09-26T06:58:30.430Z,2.80
2022-09-26T06:59:30.913Z,2.80
2022-09-26T07:00:30.436Z,2.80
2022-09-26T07:01:30.728Z,2.70
2022-09-26T07:02:30.403Z,2.70
2022-09-26T07:03:30.376Z,3.00
2022-09-26T07:04:30.685Z,2.90
2022-09-26T07:05:30.404Z,2.80
2022-09-26T07:06:31.811Z,2.50
2022-09-26T07:07:30.605Z,2.60
2022-09-26T07:09:00.518Z,3.00
2022-09-26T07:09:31.397Z,2.90
2022-09-26T07:10:30.308Z,2.60
2022-09-26T07:11:41.873Z,3.10
2022-09-26T07:12:31.275Z,2.70
2022-09-26T07:13:31.491Z,2.90
2022-09-26T07:14:30.856Z,2.80
2022-09-26T07:15:31.575Z,3.20
2022-09-26T07:16:30.280Z,3.00
2022-09-26T07:17:30.215Z,2.80
2022-09-26T07:18:30.211Z,2.80
2022-09-26T07:19:30.232Z,2.80
2022-09-26T07:20:30.241Z,3.00
2022-09-26T07:21:30.180Z,2.90
2022-09-26T07:22:31.120Z,2.80
2022-09-26T07:23:31.601Z,2.90
2022-09-26T07:24:30.223Z,2.80
2022-09-26T07:25:30.968Z,3.30
2022-09-26T07:26:30.258Z,3.00
2022-09-26T07:27:30.102Z,3.40
2022-09-26T07:28:30.097Z,2.90
2022-09-26T07:29:30.267Z,3.10
2022-09-26T07:30:30.108Z,2.80
2022-09-26T07:31:30.156Z,3.00
2022-09-26T07:32:30.093Z,3.40
2022-09-26T07:33:30.031Z,3.10
2022-09-26T07:34:30.051Z,2.70
2022-09-26T07:35:30.054Z,3.10
2022-09-26T07:36:30.003Z,3.50
2022-09-26T07:37:29.996Z,2.80
2022-09-26T07:38:29.990Z,3.30
2022-09-26T07:39:30.143Z,3.30
2022-09-26T07:40:29.977Z,3.10
2022-09-26T07:41:29.993Z,3.00
2022-09-26T07:42:30.154Z,3.30
2022-09-26T07:44:12.706Z,3.20
2022-09-26T07:45:31.304Z,3.10
2022-09-26T07:46:29.965Z,2.70
2022-09-26T07:47:29.894Z,3.50
2022-09-26T07:48:29.862Z,3.10
2022-09-26T07:49:29.877Z,2.90
2022-09-26T07:50:30.094Z,2.90
2022-09-26T07:51:29.842Z,2.90
2022-09-26T07:52:29.818Z,3.20
2022-09-26T07:53:30.101Z,2.90
2022-09-26T07:54:29.848Z,3.10
2022-09-26T07:55:29.790Z,3.00
2022-09-26T07:56:29.818Z,3.10
2022-09-26T07:57:29.768Z,3.10
2022-09-26T07:58:29.756Z,2.90
2022-09-26T07:59:29.769Z,2.80
2022-09-26T08:00:29.981Z,3.20
2022-09-26T08:01:29.799Z,3.00
2022-09-26T08:02:29.849Z,3.30
2022-09-26T08:03:29.880Z,2.70
2022-09-26T08:04:29.702Z,2.80
2022-09-26T08:05:29.681Z,2.40
2022-09-26T08:06:29.690Z,2.80
2022-09-26T08:07:29.673Z,2.70
2022-09-26T08:08:29.646Z,3.20
2022-09-26T08:09:29.633Z,2.90
2022-09-26T08:10:29.617Z,2.90
2022-09-26T08:11:29.619Z,2.80
2022-09-26T08:12:29.624Z,2.40
2022-09-26T08:13:29.589Z,2.60
2022-09-26T08:14:29.608Z,2.60
2022-09-26T08:15:29.584Z,2.30
2022-09-26T08:16:29.689Z,2.60
2022-09-26T08:17:29.542Z,2.70
2022-09-26T08:18:29.523Z,2.80
2022-09-26T08:19:29.522Z,2.40
2022-09-26T08:20:32.235Z,2.50
2022-09-26T08:21:29.507Z,2.60
2022-09-26T08:22:29.490Z,2.20
2022-09-26T08:23:29.544Z,2.70
2022-09-26T08:24:29.471Z,2.30
2022-09-26T08:25:29.790Z,2.10
2022-09-26T08:26:29.440Z,2.50
2022-09-26T08:27:29.426Z,2.20
2022-09-26T08:28:29.613Z,2.20
2022-09-26T08:29:29.450Z,2.10
2022-09-26T08:30:29.392Z,2.50
2022-09-26T08:31:29.488Z,2.10
2022-09-26T08:32:29.551Z,1.90
2022-09-26T08:33:29.408Z,2.10
2022-09-26T08:34:30.009Z,1.90
2022-09-26T08:35:29.464Z,2.00
2022-09-26T08:36:29.328Z,2.10
2022-09-26T08:37:29.389Z,1.90
2022-09-26T08:38:29.338Z,2.10
2022-09-26T08:39:33.275Z,2.10
2022-09-26T08:40:29.329Z,2.10
2022-09-26T08:41:29.284Z,1.90
2022-09-26T08:42:29.316Z,1.70
2022-09-26T08:43:29.295Z,1.70
2022-09-26T08:44:29.245Z,2.20
2022-09-26T08:45:29.235Z,1.80
2022-09-26T08:46:29.255Z,1.80
2022-09-26T08:47:29.241Z,1.70
2022-09-26T08:48:29.222Z,1.70
2022-09-26T08:49:29.222Z,1.80
2022-09-26T08:50:29.172Z,1.70
2022-09-26T08:51:29.546Z,2.00
2022-09-26T08:52:29.195Z,1.80
2022-09-26T08:53:29.167Z,1.90
2022-09-26T08:54:29.136Z,1.80
2022-09-26T08:55:29.118Z,2.20
2022-09-26T08:56:29.106Z,1.90
2022-09-26T08:57:29.191Z,1.90
2022-09-26T08:58:29.463Z,1.80
2022-09-26T08:59:30.045Z,2.00
2022-09-26T09:00:29.076Z,2.20
2022-09-26T09:01:29.129Z,1.90
2022-09-26T09:02:29.181Z,2.20
2022-09-26T09:03:29.089Z,2.20
2022-09-26T09:04:29.076Z,1.90
2022-09-26T09:05:29.057Z,2.10
2022-09-26T09:06:29.050Z,2.30
2022-09-26T09:07:29.022Z,2.00
2022-09-26T09:08:29.204Z,2.10
2022-09-26T09:09:28.996Z,1.90
2022-09-26T09:10:28.997Z,2.10
2022-09-26T09:11:28.935Z,1.60
2022-09-26T09:12:32.145Z,2.20
2022-09-26T09:13:29.034Z,2.00
2022-09-26T09:14:30.348Z,2.00
2022-09-26T09:15:29.023Z,1.70
2022-09-26T09:16:28.927Z,1.90
2022-09-26T09:17:28.907Z,2.00
2022-09-26T09:18:28.874Z,2.20
2022-09-26T09:19:28.863Z,1.90
2022-09-26T09:20:28.830Z,2.00
2022-09-26T09:21:28.868Z,2.00
2022-09-26T09:22:28.841Z,1.90
2022-09-26T09:23:28.816Z,2.10
2022-09-26T09:24:28.811Z,2.30
2022-09-26T09:25:28.788Z,2.30
2022-09-26T09:28:29.757Z,2.20
2022-09-26T09:29:28.743Z,2.10
2022-09-26T09:30:28.766Z,2.20
2022-09-26T09:31:28.755Z,2.30
2022-09-26T09:32:28.714Z,2.10
2022-09-26T09:33:28.694Z,2.20
2022-09-26T09:34:28.683Z,2.10
2022-09-26T09:35:28.683Z,2.00
2022-09-26T09:36:28.699Z,2.60
2022-09-26T09:37:28.684Z,2.30
2022-09-26T09:38:28.644Z,2.10
2022-09-26T09:39:28.643Z,2.20
2022-09-26T09:40:28.658Z,2.40
2022-09-26T09:41:28.644Z,2.00
2022-09-26T09:42:28.596Z,2.20
2022-09-26T09:43:28.613Z,2.10
2022-09-26T09:44:29.263Z,2.00
2022-09-26T09:45:28.575Z,2.20
2022-09-26T09:46:28.597Z,2.10
2022-09-26T09:47:28.542Z,2.30
2022-09-26T09:48:28.545Z,2.20
2022-09-26T09:49:28.536Z,2.20
2022-09-26T09:50:28.505Z,2.00
2022-09-26T09:51:28.558Z,2.30
2022-09-26T09:52:28.791Z,2.00
2022-09-26T09:53:28.485Z,2.40
2022-09-26T09:54:28.479Z,2.00
2022-09-26T09:55:28.454Z,1.90
2022-09-26T09:56:28.439Z,2.30
2022-09-26T09:57:28.481Z,2.00
2022-09-26T09:58:29.110Z,2.00
2022-09-26T09:59:28.418Z,2.20
2022-09-26T10:00:28.394Z,2.20
2022-09-26T10:01:28.532Z,2.00
2022-09-26T10:02:28.428Z,2.50
2022-09-26T10:03:28.369Z,2.20
2022-09-26T10:04:28.422Z,2.30
2022-09-26T10:05:28.368Z,2.40
2022-09-26T10:06:45.546Z,2.50
2022-09-26T10:07:29.377Z,2.40
2022-09-26T10:08:28.375Z,2.60
2022-09-26T10:09:35.194Z,2.30
2022-09-26T10:10:29.366Z,2.50
2022-09-26T10:11:28.299Z,2.30
2022-09-26T10:12:28.776Z,2.10
2022-09-26T10:13:28.253Z,2.30
2022-09-26T10:14:28.243Z,2.50
2022-09-26T10:15:28.238Z,2.70
2022-09-26T10:16:28.361Z,2.80
2022-09-26T10:17:28.227Z,2.40
2022-09-26T10:18:28.233Z,2.70
2022-09-26T10:19:28.239Z,2.60
2022-09-26T10:20:28.184Z,2.50
2022-09-26T10:21:28.176Z,2.70
2022-09-26T10:22:28.142Z,2.60
2022-09-26T10:23:28.168Z,2.30
2022-09-26T10:24:28.130Z,2.20
2022-09-26T10:25:28.125Z,2.20
2022-09-26T10:26:31.433Z,2.40
2022-09-26T10:27:28.108Z,2.30
2022-09-26T10:28:28.235Z,2.20
2022-09-26T10:29:28.119Z,2.10
2022-09-26T10:30:28.168Z,1.90
2022-09-26T10:31:28.129Z,2.30
2022-09-26T10:32:28.219Z,2.20
2022-09-26T10:33:28.037Z,2.20
2022-09-26T10:34:28.116Z,2.60
2022-09-26T10:35:28.248Z,2.30
2022-09-26T10:36:28.000Z,2.20
2022-09-26T10:37:27.997Z,2.00
2022-09-26T10:38:28.042Z,2.20
2022-09-26T10:39:28.260Z,2.10
2022-09-26T10:40:27.965Z,2.40
2022-09-26T10:41:27.942Z,2.00
2022-09-26T10:42:32.146Z,2.30
2022-09-26T10:43:27.921Z,2.00
2022-09-26T10:44:27.946Z,2.00
2022-09-26T10:45:27.893Z,2.30
2022-09-26T10:46:28.339Z,2.40
2022-09-26T10:47:28.821Z,2.30
2022-09-26T10:48:27.871Z,2.30
2022-09-26T10:49:27.963Z,2.20
2022-09-26T10:50:27.941Z,2.20
2022-09-26T10:51:28.156Z,1.90
2022-09-26T10:52:28.062Z,2.20
2022-09-26T10:53:27.812Z,2.10
2022-09-26T10:54:27.803Z,2.30
2022-09-26T10:55:27.955Z,2.10
2022-09-26T10:56:27.802Z,2.20
2022-09-26T10:57:27.925Z,2.00
2022-09-26T10:58:28.279Z,2.20
2022-09-26T10:59:27.744Z,2.30
2022-09-26T11:00:27.739Z,2.00
2022-09-26T11:01:27.833Z,2.20
2022-09-26T11:02:27.706Z,2.10
2022-09-26T11:03:27.723Z,2.20
2022-09-26T11:04:27.690Z,2.10
2022-09-26T11:05:27.688Z,2.30
2022-09-26T11:06:27.697Z,2.40
2022-09-26T11:07:27.666Z,2.30
2022-09-26T11:08:27.639Z,2.10
2022-09-26T11:09:27.626Z,2.00
2022-09-26T11:10:27.641Z,1.90
2022-09-26T11:11:27.627Z,2.10
2022-09-26T11:12:27.830Z,2.40
2022-09-26T11:13:27.640Z,2.10
2022-09-26T11:14:28.611Z,2.10
2022-09-26T11:15:27.564Z,2.70
2022-09-26T11:16:27.826Z,2.00
2022-09-26T11:17:27.554Z,2.00
2022-09-26T11:18:27.562Z,2.30
2022-09-26T11:19:27.512Z,2.10
2022-09-26T11:20:27.503Z,2.60
2022-09-26T11:21:29.087Z,2.00
2022-09-26T11:22:27.530Z,2.10
2022-09-26T11:23:27.509Z,2.20
2022-09-26T11:24:27.466Z,2.10
2022-09-26T11:25:27.465Z,2.20
2022-09-26T11:26:27.456Z,1.90
2022-09-26T11:27:27.465Z,2.00
2022-09-26T11:28:27.447Z,2.20
2022-09-26T11:29:27.435Z,2.30
2022-09-26T11:30:27.437Z,2.00
2022-09-26T11:31:27.499Z,2.10
2022-09-26T11:32:27.380Z,1.90
2022-09-26T11:33:27.369Z,2.30
2022-09-26T11:34:27.368Z,1.90
2022-09-26T11:35:27.369Z,1.90
2022-09-26T11:36:27.354Z,1.90
2022-09-26T11:37:28.233Z,1.80
2022-09-26T11:38:27.395Z,2.10
2022-09-26T11:39:27.342Z,2.10
2022-09-26T11:40:27.930Z,1.80
2022-09-26T11:41:27.601Z,2.10
2022-09-26T11:42:27.330Z,1.80
2022-09-26T11:43:27.388Z,2.10
2022-09-26T11:44:27.424Z,1.70
2022-09-26T11:45:27.782Z,1.80
2022-09-26T11:46:28.100Z,1.70
2022-09-26T11:47:27.209Z,2.10
2022-09-26T11:48:27.190Z,2.10
2022-09-26T11:49:27.194Z,1.80
2022-09-26T11:50:27.318Z,1.90
2022-09-26T11:51:27.209Z,1.80
2022-09-26T11:52:27.162Z,2.00
2022-09-26T11:53:27.309Z,2.00
2022-09-26T11:54:27.133Z,1.90
2022-09-26T11:55:27.128Z,1.80
2022-09-26T11:56:27.143Z,1.90
2022-09-26T11:57:27.166Z,1.80
2022-09-26T11:58:27.094Z,1.70
2022-09-26T11:59:27.080Z,1.80
2022-09-26T12:00:27.062Z,2.00
2022-09-26T12:01:27.064Z,1.90
2022-09-26T12:02:27.107Z,1.70
2022-09-26T12:03:27.234Z,1.90
2022-09-26T12:04:27.059Z,1.80
2022-09-26T12:05:27.661Z,1.70
2022-09-26T12:06:27.013Z,2.00
2022-09-26T12:07:26.985Z,1.60
2022-09-26T12:08:27.029Z,2.00
2022-09-26T12:09:26.970Z,1.80
2022-09-26T12:10:26.966Z,1.80
2022-09-26T12:11:26.951Z,1.80
2022-09-26T12:12:26.942Z,2.40
2022-09-26T12:13:26.967Z,2.40
2022-09-26T12:14:26.934Z,2.00
2022-09-26T12:15:27.222Z,2.00
2022-09-26T12:16:26.936Z,2.20
2022-09-26T12:17:26.869Z,1.70
2022-09-26T12:18:26.876Z,2.00
2022-09-26T12:19:26.873Z,2.20
2022-09-26T12:20:26.853Z,2.20
2022-09-26T12:21:26.853Z,1.70
2022-09-26T12:22:26.862Z,2.00
2022-09-26T12:23:26.834Z,2.00
2022-09-26T12:24:26.836Z,1.90
2022-09-26T12:25:28.274Z,1.80
2022-09-26T12:26:26.792Z,1.80
2022-09-26T12:27:26.800Z,2.20
2022-09-26T12:28:26.771Z,1.90
2022-09-26T12:29:26.772Z,2.10
2022-09-26T12:30:26.783Z,1.90
2022-09-26T12:31:26.837Z,2.00
2022-09-26T12:32:26.721Z,2.00
2022-09-26T12:33:26.735Z,2.00
2022-09-26T12:34:26.685Z,1.90
2022-09-26T12:35:26.697Z,2.10
2022-09-26T12:36:26.665Z,1.90
2022-09-26T12:37:26.679Z,1.80
2022-09-26T12:38:26.646Z,2.00
2022-09-26T12:39:26.644Z,2.10
2022-09-26T12:40:27.644Z,2.00
2022-09-26T12:41:26.983Z,1.90
2022-09-26T12:42:26.650Z,2.00
2022-09-26T12:43:26.607Z,1.90
2022-09-26T12:44:26.598Z,2.00
2022-09-26T12:45:26.681Z,1.90
2022-09-26T12:46:26.747Z,2.20
2022-09-26T12:47:26.579Z,2.00
2022-09-26T12:48:26.549Z,2.50
2022-09-26T12:49:27.973Z,2.10
2022-09-26T12:50:26.790Z,2.10
2022-09-26T12:51:26.547Z,2.00
2022-09-26T12:52:27.599Z,2.10
2022-09-26T12:53:27.288Z,2.10
2022-09-26T12:54:26.473Z,2.20
2022-09-26T12:55:26.954Z,2.10
2022-09-26T12:56:26.474Z,1.80
2022-09-26T12:57:26.422Z,2.00
2022-09-26T12:58:26.424Z,1.80
2022-09-26T12:59:26.481Z,1.90
2022-09-26T13:00:26.392Z,2.10
2022-09-26T13:01:26.496Z,1.80
2022-09-26T13:02:26.435Z,2.50
2022-09-26T13:03:26.367Z,2.30
2022-09-26T13:04:26.395Z,2.00
2022-09-26T13:05:26.346Z,2.40
2022-09-26T13:06:26.354Z,1.90
2022-09-26T13:07:26.433Z,2.00
2022-09-26T13:08:26.323Z,2.40
2022-09-26T13:09:26.314Z,2.30
2022-09-26T13:10:26.447Z,2.20
2022-09-26T13:11:30.292Z,2.30
2022-09-26T13:12:27.304Z,2.40
2022-09-26T13:13:26.255Z,2.30
2022-09-26T13:14:26.256Z,2.20
2022-09-26T13:15:26.285Z,2.20
2022-09-26T13:16:26.327Z,2.10
2022-09-26T13:17:26.526Z,2.20
2022-09-26T13:18:26.854Z,2.40
2022-09-26T13:19:26.189Z,2.40
2022-09-26T13:20:26.189Z,2.00
2022-09-26T13:21:26.489Z,2.40